Spencer, WI

7:45 AM CST on November 28, 2014 (GMT -0600)
Wausau Downtown | Change Station
CLOSE
Current Station
Airport
Location: Wausau,
Elevation: 1201 ft
Nearby Weather Stations
Active Advisory: Special Statement Active Notice: Record Report

Elev 1201 ft 44.93 °N, 89.63 °W | Updated 11 minutes ago

Snow
Snow
8 °F
Feels Like -4 °F
N
8
Wind Variable Wind from SE

Today
High -- | Low -- °F
--% Chance of Precip.
Yesterday
High -- | Low -- °F
Precip. -- in
7:14 AM 4:23 PM
Waxing Crescent, 40% visible
Pressure 30.11 in
Visibility 1.2 miles
Clouds Overcast 3200 ft
Windchill -4 °F
Dew Point 4 °F
Humidity 83%
Rainfall 0.00 in
Snow Depth Not available.
UV 0 out of 12
Pollen .10 out of 12
Air Quality Not available.
Flu Activity Not available.
SPECI KAUW 281334Z AUTO 13007KT 1 1/4SM -SN BR OVC032 M13/M16 A3011 RMK AO2 P0001 T11331156

More Conditions Fewer Conditions

Pressure 30.11 in
Visibility 1.2 miles
Clouds Overcast 3200 ft
Windchill -4 °F
Dew Point 4 °F
Humidity 83%
Rainfall 0.00 in
Snow Depth Not available.
UV 0 out of 12
Pollen .10 out of 12
Air Quality Not available.
Flu Activity Not available.
SPECI KAUW 281334Z AUTO 13007KT 1 1/4SM -SN BR OVC032 M13/M16 A3011 RMK AO2 P0001 T11331156

More Conditions Fewer Conditions

10-Day Weather Forecast

Almanac

Astronomy

Nov. 28, 2014 Rise Set
Actual Time
Civil Twilight
Nautical Twilight
Astronomical Twilight
Moon
Length of Visible Light
Length of Day
Tomorrow will be .
, % of the Moon is Illuminated

Today's Extremes

State Highs State Lows

Community

WunderPhotos

Upload Photos

1,774,210 photos uploaded!

WunderBlogs® & News

Nearby

Air Quality

  Air Quality AQ Index Pollutant
Not available.

Snow Depth

Station Depth Elevation

Earthquake Activity

City Distance Mag. Time & Date
Minimum magnitude displayed is 2.5.

Coastal Water Temperatures

Place Temperature

Nearby Weather Stations